Terminal Aerodrome Forecast
Issued by NWS

Home | Current Version | Previous Version | Text Only | Print | Product List | Glossary On
Versions: 1 2 3 4 5 6 7 8 9 10 11 12 13 14
000
FTUS45 KREV 240500
TAFTVL
TAF
KTVL 240529Z 2406/2506 19006KT P6SM SCT180
     FM241700 19012G24KT P6SM SCT180
     FM242000 20016G26KT P6SM SKC
     FM250300 19009KT P6SM FEW180=

USA.gov is the U.S. government's official web portal to all federal, state and local government web resources and services.